sensor_id;sensor_type;location;lat;lon;timestamp;pressure;altitude;pressure_sealevel;temperature;humidity
20043;BME280;10182;52.896;6.496;2022-12-07T00:02:28;101536.06;;;2.45;100.00
20043;BME280;10182;52.896;6.496;2022-12-07T00:07:29;101529.97;;;2.38;100.00
20043;BME280;10182;52.896;6.496;2022-12-07T00:12:32;101527.34;;;2.30;100.00
20043;BME280;10182;52.896;6.496;2022-12-07T00:17:34;101516.88;;;2.29;100.00
20043;BME280;10182;52.896;6.496;2022-12-07T00:22:35;101524.72;;;2.32;100.00
20043;BME280;10182;52.896;6.496;2022-12-07T00:27:38;101529.97;;;2.38;100.00
20043;BME280;10182;52.896;6.496;2022-12-07T00:32:40;101519.47;;;2.46;100.00
20043;BME280;10182;52.896;6.496;2022-12-07T00:37:42;101512.53;;;2.46;100.00
20043;BME280;10182;52.896;6.496;2022-12-07T00:42:45;101506.41;;;2.47;100.00
20043;BME280;10182;52.896;6.496;2022-12-07T00:47:47;101500.31;;;2.47;100.00
20043;BME280;10182;52.896;6.496;2022-12-07T00:52:48;101498.56;;;2.44;100.00
20043;BME280;10182;52.896;6.496;2022-12-07T00:57:52;101500.31;;;2.44;100.00
20043;BME280;10182;52.896;6.496;2022-12-07T01:02:53;101491.59;;;2.46;100.00
20043;BME280;10182;52.896;6.496;2022-12-07T01:07:55;101486.34;;;2.52;100.00
20043;BME280;10182;52.896;6.496;2022-12-07T01:12:58;101495.94;;;2.46;100.00
20043;BME280;10182;52.896;6.496;2022-12-07T01:18:00;101490.72;;;2.52;100.00
20043;BME280;10182;52.896;6.496;2022-12-07T01:23:02;101474.13;;;2.62;100.00
20043;BME280;10182;52.896;6.496;2022-12-07T01:28:05;101483.72;;;2.73;100.00
20043;BME280;10182;52.896;6.496;2022-12-07T01:33:06;101481.06;;;2.77;100.00
20043;BME280;10182;52.896;6.496;2022-12-07T01:38:08;101488.03;;;2.83;100.00
20043;BME280;10182;52.896;6.496;2022-12-07T01:43:16;101494.13;;;2.86;100.00
20043;BME280;10182;52.896;6.496;2022-12-07T01:48:23;101502.00;;;2.85;100.00
20043;BME280;10182;52.896;6.496;2022-12-07T01:53:27;101511.56;;;2.83;100.00
20043;BME280;10182;52.896;6.496;2022-12-07T01:58:32;101501.16;;;2.69;100.00
20043;BME280;10182;52.896;6.496;2022-12-07T02:03:38;101492.44;;;2.61;100.00
20043;BME280;10182;52.896;6.496;2022-12-07T02:08:41;101494.19;;;2.60;100.00
20043;BME280;10182;52.896;6.496;2022-12-07T02:13:45;101488.97;;;2.57;100.00
20043;BME280;10182;52.896;6.496;2022-12-07T02:18:58;101479.38;;;2.56;100.00
20043;BME280;10182;52.896;6.496;2022-12-07T02:24:25;101484.59;;;2.50;100.00
20043;BME280;10182;52.896;6.496;2022-12-07T02:29:35;101466.31;;;2.44;100.00
20043;BME280;10182;52.896;6.496;2022-12-07T02:34:45;101481.16;;;2.39;100.00
20043;BME280;10182;52.896;6.496;2022-12-07T02:39:53;101489.00;;;2.39;100.00
20043;BME280;10182;52.896;6.496;2022-12-07T02:44:59;101482.00;;;2.44;100.00
20043;BME280;10182;52.896;6.496;2022-12-07T02:50:03;101486.34;;;2.51;100.00
20043;BME280;10182;52.896;6.496;2022-12-07T02:55:06;101482.84;;;2.55;100.00
20043;BME280;10182;52.896;6.496;2022-12-07T03:00:13;101475.88;;;2.52;100.00
20043;BME280;10182;52.896;6.496;2022-12-07T03:05:41;101475.91;;;2.48;100.00
20043;BME280;10182;52.896;6.496;2022-12-07T03:10:52;101466.31;;;2.47;100.00
20043;BME280;10182;52.896;6.496;2022-12-07T03:15:59;101472.41;;;2.47;100.00
20043;BME280;10182;52.896;6.496;2022-12-07T03:21:07;101475.88;;;2.52;100.00
20043;BME280;10182;52.896;6.496;2022-12-07T03:26:12;101459.31;;;2.57;100.00
20043;BME280;10182;52.896;6.496;2022-12-07T03:31:19;101461.09;;;2.53;100.00
20043;BME280;10182;52.896;6.496;2022-12-07T03:36:26;101450.63;;;2.45;100.00
20043;BME280;10182;52.896;6.496;2022-12-07T03:41:32;101460.22;;;2.39;100.00
20043;BME280;10182;52.896;6.496;2022-12-07T03:46:43;101459.38;;;2.36;100.00
20043;BME280;10182;52.896;6.496;2022-12-07T03:51:50;101455.88;;;2.34;100.00
20043;BME280;10182;52.896;6.496;2022-12-07T03:56:53;101441.94;;;2.28;100.00
20043;BME280;10182;52.896;6.496;2022-12-07T04:02:02;101447.16;;;2.26;100.00
20043;BME280;10182;52.896;6.496;2022-12-07T04:07:04;101445.44;;;2.22;100.00
20043;BME280;10182;52.896;6.496;2022-12-07T04:12:06;101442.81;;;2.19;100.00
20043;BME280;10182;52.896;6.496;2022-12-07T04:17:09;101449.78;;;2.17;100.00
20043;BME280;10182;52.896;6.496;2022-12-07T04:22:11;101445.44;;;2.11;100.00
20043;BME280;10182;52.896;6.496;2022-12-07T04:27:12;101448.06;;;2.07;100.00
20043;BME280;10182;52.896;6.496;2022-12-07T04:32:15;101448.91;;;2.07;100.00
20043;BME280;10182;52.896;6.496;2022-12-07T04:37:17;101457.66;;;2.09;100.00
20043;BME280;10182;52.896;6.496;2022-12-07T04:42:19;101458.50;;;2.14;100.00
20043;BME280;10182;52.896;6.496;2022-12-07T04:47:22;101439.31;;;2.35;100.00
20043;BME280;10182;52.896;6.496;2022-12-07T04:52:23;101436.69;;;2.39;100.00
20043;BME280;10182;52.896;6.496;2022-12-07T04:57:25;101434.09;;;2.34;100.00
20043;BME280;10182;52.896;6.496;2022-12-07T05:02:28;101434.94;;;2.27;100.00
20043;BME280;10182;52.896;6.496;2022-12-07T05:07:30;101435.84;;;2.27;100.00
20043;BME280;10182;52.896;6.496;2022-12-07T05:12:31;101430.59;;;2.24;100.00
20043;BME280;10182;52.896;6.496;2022-12-07T05:17:34;101428.00;;;2.16;100.00
20043;BME280;10182;52.896;6.496;2022-12-07T05:22:36;101430.63;;;2.07;100.00
20043;BME280;10182;52.896;6.496;2022-12-07T05:27:38;101421.91;;;2.03;100.00
20043;BME280;10182;52.896;6.496;2022-12-07T05:32:41;101429.75;;;1.94;100.00
20043;BME280;10182;52.896;6.496;2022-12-07T05:37:42;101431.50;;;1.86;100.00
20043;BME280;10182;52.896;6.496;2022-12-07T05:42:44;101428.00;;;1.84;100.00
20043;BME280;10182;52.896;6.496;2022-12-07T05:47:47;101420.16;;;1.85;100.00
20043;BME280;10182;52.896;6.496;2022-12-07T05:52:49;101427.13;;;1.80;100.00
20043;BME280;10182;52.896;6.496;2022-12-07T05:57:51;101431.50;;;1.78;100.00
20043;BME280;10182;52.896;6.496;2022-12-07T06:03:08;101428.00;;;1.79;100.00
20043;BME280;10182;52.896;6.496;2022-12-07T06:08:10;101422.78;;;1.82;100.00
20043;BME280;10182;52.896;6.496;2022-12-07T06:13:11;101431.50;;;1.88;100.00
20043;BME280;10182;52.896;6.496;2022-12-07T06:18:14;101441.09;;;1.93;100.00
20043;BME280;10182;52.896;6.496;2022-12-07T06:23:16;101438.47;;;2.01;100.00
20043;BME280;10182;52.896;6.496;2022-12-07T06:28:17;101425.38;;;2.10;100.00
20043;BME280;10182;52.896;6.496;2022-12-07T06:33:20;101421.03;;;2.12;100.00
20043;BME280;10182;52.896;6.496;2022-12-07T06:38:22;101412.31;;;2.12;100.00
20043;BME280;10182;52.896;6.496;2022-12-07T06:43:24;101420.16;;;2.07;100.00
20043;BME280;10182;52.896;6.496;2022-12-07T06:48:27;101420.16;;;1.96;100.00
20043;BME280;10182;52.896;6.496;2022-12-07T06:53:28;101443.69;;;1.99;100.00
20043;BME280;10182;52.896;6.496;2022-12-07T06:58:30;101460.22;;;2.06;100.00
20043;BME280;10182;52.896;6.496;2022-12-07T07:03:33;101460.25;;;2.15;100.00
20043;BME280;10182;52.896;6.496;2022-12-07T07:08:35;101436.69;;;2.20;100.00
20043;BME280;10182;52.896;6.496;2022-12-07T07:13:37;101441.94;;;2.26;100.00
20043;BME280;10182;52.896;6.496;2022-12-07T07:18:40;101432.34;;;2.24;100.00
20043;BME280;10182;52.896;6.496;2022-12-07T07:23:42;101436.72;;;2.17;100.00
20043;BME280;10182;52.896;6.496;2022-12-07T07:28:44;101436.72;;;2.06;100.00
20043;BME280;10182;52.896;6.496;2022-12-07T07:33:47;101444.56;;;1.94;100.00
20043;BME280;10182;52.896;6.496;2022-12-07T07:38:49;101457.63;;;1.92;100.00
20043;BME280;10182;52.896;6.496;2022-12-07T07:43:50;101467.22;;;1.95;100.00
20043;BME280;10182;52.896;6.496;2022-12-07T07:48:53;101468.06;;;1.97;100.00
20043;BME280;10182;52.896;6.496;2022-12-07T07:53:55;101448.03;;;1.97;100.00
20043;BME280;10182;52.896;6.496;2022-12-07T07:58:57;101451.53;;;1.98;100.00
20043;BME280;10182;52.896;6.496;2022-12-07T08:04:00;101462.84;;;2.05;100.00
20043;BME280;10182;52.896;6.496;2022-12-07T08:09:02;101454.13;;;2.09;100.00
20043;BME280;10182;52.896;6.496;2022-12-07T08:14:06;101455.03;;;2.11;100.00
20043;BME280;10182;52.896;6.496;2022-12-07T08:19:09;101444.56;;;2.05;100.00
20043;BME280;10182;52.896;6.496;2022-12-07T08:24:10;101449.78;;;2.00;100.00
20043;BME280;10182;52.896;6.496;2022-12-07T08:29:12;101458.47;;;1.93;100.00
20043;BME280;10182;52.896;6.496;2022-12-07T08:34:15;101468.06;;;1.94;100.00
20043;BME280;10182;52.896;6.496;2022-12-07T08:39:17;101484.66;;;2.08;100.00
20043;BME280;10182;52.896;6.496;2022-12-07T08:44:18;101474.19;;;2.19;100.00
20043;BME280;10182;52.896;6.496;2022-12-07T08:49:24;101459.38;;;2.19;100.00
20043;BME280;10182;52.896;6.496;2022-12-07T08:54:28;101463.72;;;2.13;100.00
20043;BME280;10182;52.896;6.496;2022-12-07T08:59:30;101469.81;;;2.09;100.00
20043;BME280;10182;52.896;6.496;2022-12-07T09:04:33;101465.47;;;2.14;100.00
20043;BME280;10182;52.896;6.496;2022-12-07T09:09:35;101468.94;;;2.16;100.00
20043;BME280;10182;52.896;6.496;2022-12-07T09:14:37;101459.38;;;2.19;100.00
20043;BME280;10182;52.896;6.496;2022-12-07T09:19:40;101455.91;;;2.19;100.00
20043;BME280;10182;52.896;6.496;2022-12-07T09:24:42;101455.84;;;2.28;100.00
20043;BME280;10182;52.896;6.496;2022-12-07T09:29:45;101464.56;;;2.43;100.00
20043;BME280;10182;52.896;6.496;2022-12-07T09:34:48;101465.41;;;2.68;100.00
20043;BME280;10182;52.896;6.496;2022-12-07T09:39:50;101461.88;;;2.86;100.00
20043;BME280;10182;52.896;6.496;2022-12-07T09:44:52;101477.50;;;3.01;100.00
20043;BME280;10182;52.896;6.496;2022-12-07T09:50:00;101474.84;;;3.14;100.00
20043;BME280;10182;52.896;6.496;2022-12-07T09:55:10;101482.72;;;3.12;100.00
20043;BME280;10182;52.896;6.496;2022-12-07T10:00:14;101474.00;;;3.12;100.00
20043;BME280;10182;52.896;6.496;2022-12-07T10:05:22;101462.59;;;3.19;100.00
20043;BME280;10182;52.896;6.496;2022-12-07T10:10:29;101459.16;;;3.11;100.00
20043;BME280;10182;52.896;6.496;2022-12-07T10:15:47;101455.66;;;3.15;100.00
20043;BME280;10182;52.896;6.496;2022-12-07T10:21:00;101452.13;;;3.20;100.00
20043;BME280;10182;52.896;6.496;2022-12-07T10:26:19;101442.50;;;3.22;100.00
20043;BME280;10182;52.896;6.496;2022-12-07T10:31:23;101439.88;;;3.26;100.00
20043;BME280;10182;52.896;6.496;2022-12-07T10:36:30;101457.25;;;3.37;100.00
20043;BME280;10182;52.896;6.496;2022-12-07T10:41:35;101426.59;;;3.55;100.00
20043;BME280;10182;52.896;6.496;2022-12-07T10:46:57;101410.00;;;3.58;100.00
20043;BME280;10182;52.896;6.496;2022-12-07T10:52:11;101406.44;;;3.65;100.00
20043;BME280;10182;52.896;6.496;2022-12-07T10:57:31;101399.47;;;3.67;100.00
20043;BME280;10182;52.896;6.496;2022-12-07T11:02:55;101399.34;;;3.81;100.00
20043;BME280;10182;52.896;6.496;2022-12-07T11:08:13;101392.28;;;3.89;100.00
20043;BME280;10182;52.896;6.496;2022-12-07T11:13:30;101393.16;;;3.89;100.00
20043;BME280;10182;52.896;6.496;2022-12-07T11:18:46;101385.28;;;3.91;100.00
20043;BME280;10182;52.896;6.496;2022-12-07T11:24:00;101380.97;;;3.84;100.00
20043;BME280;10182;52.896;6.496;2022-12-07T11:29:13;101382.75;;;3.82;100.00
20043;BME280;10182;52.896;6.496;2022-12-07T11:34:26;101376.66;;;3.78;100.00
20043;BME280;10182;52.896;6.496;2022-12-07T11:39:36;101376.66;;;3.78;100.00
20043;BME280;10182;52.896;6.496;2022-12-07T11:44:47;101371.34;;;3.87;100.00
20043;BME280;10182;52.896;6.496;2022-12-07T11:49:54;101365.22;;;3.88;100.00
20043;BME280;10182;52.896;6.496;2022-12-07T11:54:59;101359.00;;;3.97;100.00
20043;BME280;10182;52.896;6.496;2022-12-07T12:00:06;101342.28;;;4.09;100.00
20043;BME280;10182;52.896;6.496;2022-12-07T12:05:15;101330.84;;;4.18;100.00
20043;BME280;10182;52.896;6.496;2022-12-07T12:10:24;101332.56;;;4.19;100.00
20043;BME280;10182;52.896;6.496;2022-12-07T12:15:38;101323.75;;;4.29;100.00
20043;BME280;10182;52.896;6.496;2022-12-07T12:20:46;101319.31;;;4.33;100.00
20043;BME280;10182;52.896;6.496;2022-12-07T12:25:52;101314.00;;;4.39;100.00
20043;BME280;10182;52.896;6.496;2022-12-07T12:31:15;101304.16;;;4.55;100.00
20043;BME280;10182;52.896;6.496;2022-12-07T12:36:24;101297.94;;;4.65;100.00
20043;BME280;10182;52.896;6.496;2022-12-07T12:41:55;101295.31;;;4.64;100.00
20043;BME280;10182;52.896;6.496;2022-12-07T12:53:12;101303.28;;;4.56;100.00
20043;BME280;10182;52.896;6.496;2022-12-07T12:58:32;101308.28;;;4.01;100.00
20043;BME280;10182;52.896;6.496;2022-12-07T13:03:34;101304.34;;;3.57;100.00
20043;BME280;10182;52.896;6.496;2022-12-07T13:08:40;101301.94;;;3.32;100.00
20043;BME280;10182;52.896;6.496;2022-12-07T13:13:44;101305.47;;;3.22;100.00
20043;BME280;10182;52.896;6.496;2022-12-07T13:18:45;101303.88;;;3.02;100.00
20043;BME280;10182;52.896;6.496;2022-12-07T13:23:54;101293.50;;;2.90;100.00
20043;BME280;10182;52.896;6.496;2022-12-07T13:29:10;101291.69;;;2.94;100.00
20043;BME280;10182;52.896;6.496;2022-12-07T13:34:29;101283.81;;;3.01;100.00
20043;BME280;10182;52.896;6.496;2022-12-07T13:39:33;101274.22;;;2.99;100.00
20043;BME280;10182;52.896;6.496;2022-12-07T13:44:40;101273.34;;;3.01;100.00
20043;BME280;10182;52.896;6.496;2022-12-07T13:49:47;101266.38;;;2.99;100.00
20043;BME280;10182;52.896;6.496;2022-12-07T13:54:55;101261.13;;;3.05;100.00
20043;BME280;10182;52.896;6.496;2022-12-07T14:00:00;101257.59;;;3.09;100.00
20043;BME280;10182;52.896;6.496;2022-12-07T14:05:10;101259.31;;;3.12;100.00
20043;BME280;10182;52.896;6.496;2022-12-07T14:10:26;101257.53;;;3.15;100.00
20043;BME280;10182;52.896;6.496;2022-12-07T14:15:32;101246.19;;;3.15;100.00
20043;BME280;10182;52.896;6.496;2022-12-07T14:20:37;101242.69;;;3.19;100.00
20043;BME280;10182;52.896;6.496;2022-12-07T14:25:46;101243.50;;;3.24;100.00
20043;BME280;10182;52.896;6.496;2022-12-07T14:30:49;101242.56;;;3.31;100.00
20043;BME280;10182;52.896;6.496;2022-12-07T14:35:51;101232.97;;;3.30;100.00
20043;BME280;10182;52.896;6.496;2022-12-07T14:40:56;101239.06;;;3.34;100.00
20043;BME280;10182;52.896;6.496;2022-12-07T14:46:20;101235.56;;;3.32;100.00
20043;BME280;10182;52.896;6.496;2022-12-07T14:51:22;101236.78;;;3.85;100.00
20043;BME280;10182;52.896;6.496;2022-12-07T14:56:24;101220.47;;;3.60;100.00
20043;BME280;10182;52.896;6.496;2022-12-07T15:01:27;101217.09;;;3.46;100.00
20043;BME280;10182;52.896;6.496;2022-12-07T15:06:28;101218.94;;;3.37;100.00
20043;BME280;10182;52.896;6.496;2022-12-07T15:11:30;101218.13;;;3.32;100.00
20043;BME280;10182;52.896;6.496;2022-12-07T15:16:34;101219.84;;;3.32;100.00
20043;BME280;10182;52.896;6.496;2022-12-07T15:21:35;101224.25;;;3.27;100.00
20043;BME280;10182;52.896;6.496;2022-12-07T15:26:37;101221.69;;;3.24;100.00
20043;BME280;10182;52.896;6.496;2022-12-07T15:31:40;101230.50;;;3.13;100.00
20043;BME280;10182;52.896;6.496;2022-12-07T15:36:42;101216.53;;;3.11;100.00
20043;BME280;10182;52.896;6.496;2022-12-07T15:41:44;101199.09;;;3.10;100.00
20043;BME280;10182;52.896;6.496;2022-12-07T15:46:48;101203.50;;;3.08;100.00
20043;BME280;10182;52.896;6.496;2022-12-07T15:51:49;101194.78;;;3.04;100.00
20043;BME280;10182;52.896;6.496;2022-12-07T15:56:51;101200.91;;;3.05;100.00
20043;BME280;10182;52.896;6.496;2022-12-07T16:01:55;101192.16;;;3.04;100.00
20043;BME280;10182;52.896;6.496;2022-12-07T16:06:57;101197.44;;;3.01;100.00
20043;BME280;10182;52.896;6.496;2022-12-07T16:11:59;101203.59;;;2.91;100.00
20043;BME280;10182;52.896;6.496;2022-12-07T16:17:02;101201.03;;;2.86;100.00
20043;BME280;10182;52.896;6.496;2022-12-07T16:22:04;101196.72;;;2.81;100.00
20043;BME280;10182;52.896;6.496;2022-12-07T16:27:06;101196.78;;;2.76;100.00
20043;BME280;10182;52.896;6.496;2022-12-07T16:32:09;101193.31;;;2.69;100.00
20043;BME280;10182;52.896;6.496;2022-12-07T16:37:11;101181.16;;;2.59;100.00
20043;BME280;10182;52.896;6.496;2022-12-07T16:42:14;101171.66;;;2.49;100.00
20043;BME280;10182;52.896;6.496;2022-12-07T16:47:17;101160.31;;;2.50;100.00
20043;BME280;10182;52.896;6.496;2022-12-07T16:52:19;101149.84;;;2.48;100.00
20043;BME280;10182;52.896;6.496;2022-12-07T16:57:21;101147.22;;;2.53;100.00
20043;BME280;10182;52.896;6.496;2022-12-07T17:02:24;101140.25;;;2.52;100.00
20043;BME280;10182;52.896;6.496;2022-12-07T17:07:26;101137.66;;;2.46;100.00
20043;BME280;10182;52.896;6.496;2022-12-07T17:12:28;101136.84;;;2.42;100.00
20043;BME280;10182;52.896;6.496;2022-12-07T17:17:31;101136.84;;;2.37;100.00
20043;BME280;10182;52.896;6.496;2022-12-07T17:22:32;101136.88;;;2.33;100.00
20043;BME280;10182;52.896;6.496;2022-12-07T17:27:34;101122.09;;;2.30;100.00
20043;BME280;10182;52.896;6.496;2022-12-07T17:32:37;101120.34;;;2.28;100.00
20043;BME280;10182;52.896;6.496;2022-12-07T17:37:39;101120.41;;;2.22;100.00
20043;BME280;10182;52.896;6.496;2022-12-07T17:42:41;101116.06;;;2.16;100.00
20043;BME280;10182;52.896;6.496;2022-12-07T17:47:48;101109.97;;;2.17;100.00
20043;BME280;10182;52.896;6.496;2022-12-07T17:52:50;101109.94;;;2.20;100.00
20043;BME280;10182;52.896;6.496;2022-12-07T17:58:09;101102.09;;;2.20;100.00
20043;BME280;10182;52.896;6.496;2022-12-07T18:03:12;101094.25;;;2.20;100.00
20043;BME280;10182;52.896;6.496;2022-12-07T18:08:14;101094.25;;;2.20;100.00
20043;BME280;10182;52.896;6.496;2022-12-07T18:13:16;101086.41;;;2.20;100.00
20043;BME280;10182;52.896;6.496;2022-12-07T18:18:45;101085.53;;;2.21;100.00
20043;BME280;10182;52.896;6.496;2022-12-07T18:23:49;101076.88;;;2.17;100.00
20043;BME280;10182;52.896;6.496;2022-12-07T18:28:51;101082.09;;;2.14;100.00
20043;BME280;10182;52.896;6.496;2022-12-07T18:33:54;101081.25;;;2.08;100.00
20043;BME280;10182;52.896;6.496;2022-12-07T18:38:56;101058.66;;;2.02;100.00
20043;BME280;10182;52.896;6.496;2022-12-07T18:43:58;101056.94;;;2.02;100.00
20043;BME280;10182;52.896;6.496;2022-12-07T18:49:02;101046.47;;;2.02;100.00
20043;BME280;10182;52.896;6.496;2022-12-07T18:54:04;101043.03;;;1.96;100.00
20043;BME280;10182;52.896;6.496;2022-12-07T18:59:06;101046.56;;;1.90;100.00
20043;BME280;10182;52.896;6.496;2022-12-07T19:04:27;101044.84;;;1.80;100.00
20043;BME280;10182;52.896;6.496;2022-12-07T19:09:29;101053.59;;;1.74;100.00
20043;BME280;10182;52.896;6.496;2022-12-07T19:14:32;101044.94;;;1.66;100.00
20043;BME280;10182;52.896;6.496;2022-12-07T19:19:37;101040.56;;;1.69;100.00
20043;BME280;10182;52.896;6.496;2022-12-07T19:24:39;101030.09;;;1.68;100.00
20043;BME280;10182;52.896;6.496;2022-12-07T19:29:41;101023.16;;;1.68;100.00
20043;BME280;10182;52.896;6.496;2022-12-07T19:34:45;101025.78;;;1.68;100.00
20043;BME280;10182;52.896;6.496;2022-12-07T19:39:47;101014.44;;;1.66;100.00
20043;BME280;10182;52.896;6.496;2022-12-07T19:44:54;101012.72;;;1.67;100.00
20043;BME280;10182;52.896;6.496;2022-12-07T19:49:57;101008.34;;;1.67;100.00
20043;BME280;10182;52.896;6.496;2022-12-07T19:54:58;101013.59;;;1.64;100.00
20043;BME280;10182;52.896;6.496;2022-12-07T20:00:00;101013.63;;;1.63;100.00
20043;BME280;10182;52.896;6.496;2022-12-07T20:05:04;101003.16;;;1.66;100.00
20043;BME280;10182;52.896;6.496;2022-12-07T20:10:06;101000.50;;;1.69;100.00
20043;BME280;10182;52.896;6.496;2022-12-07T20:15:09;100990.94;;;1.71;100.00
20043;BME280;10182;52.896;6.496;2022-12-07T20:20:12;100991.78;;;1.73;100.00
20043;BME280;10182;52.896;6.496;2022-12-07T20:25:14;100990.88;;;1.76;100.00
20043;BME280;10182;52.896;6.496;2022-12-07T20:30:19;100983.97;;;1.70;100.00
20043;BME280;10182;52.896;6.496;2022-12-07T20:35:22;100969.97;;;1.79;100.00
20043;BME280;10182;52.896;6.496;2022-12-07T20:40:23;100968.25;;;1.75;100.00
20043;BME280;10182;52.896;6.496;2022-12-07T20:45:25;100970.00;;;1.74;100.00
20043;BME280;10182;52.896;6.496;2022-12-07T20:50:28;100946.53;;;1.69;100.00
20043;BME280;10182;52.896;6.496;2022-12-07T20:55:30;100949.16;;;1.66;100.00
20043;BME280;10182;52.896;6.496;2022-12-07T21:00:33;100943.94;;;1.69;100.00
20043;BME280;10182;52.896;6.496;2022-12-07T21:05:36;100948.28;;;1.67;100.00
20043;BME280;10182;52.896;6.496;2022-12-07T21:10:38;100944.81;;;1.68;100.00
20043;BME280;10182;52.896;6.496;2022-12-07T21:15:40;100936.09;;;1.68;100.00
20043;BME280;10182;52.896;6.496;2022-12-07T21:20:43;100930.88;;;1.66;100.00
20043;BME280;10182;52.896;6.496;2022-12-07T21:25:45;100922.16;;;1.69;100.00
20043;BME280;10182;52.896;6.496;2022-12-07T21:30:46;100916.09;;;1.65;100.00
20043;BME280;10182;52.896;6.496;2022-12-07T21:35:49;100904.78;;;1.65;100.00
20043;BME280;10182;52.896;6.496;2022-12-07T21:40:51;100897.88;;;1.58;100.00
20043;BME280;10182;52.896;6.496;2022-12-07T21:45:53;100900.44;;;1.62;100.00
20043;BME280;10182;52.896;6.496;2022-12-07T21:51:02;100906.50;;;1.67;100.00
20043;BME280;10182;52.896;6.496;2022-12-07T21:56:10;100892.59;;;1.65;100.00
20043;BME280;10182;52.896;6.496;2022-12-07T22:01:15;100888.16;;;1.72;100.00
20043;BME280;10182;52.896;6.496;2022-12-07T22:06:20;100879.44;;;1.76;100.00
20043;BME280;10182;52.896;6.496;2022-12-07T22:11:22;100867.19;;;1.81;100.00
20043;BME280;10182;52.896;6.496;2022-12-07T22:16:24;100857.56;;;1.88;100.00
20043;BME280;10182;52.896;6.496;2022-12-07T22:21:28;100844.53;;;1.85;100.00
20043;BME280;10182;52.896;6.496;2022-12-07T22:26:30;100850.69;;;1.81;100.00
20043;BME280;10182;52.896;6.496;2022-12-07T22:31:32;100846.34;;;1.78;100.00
20043;BME280;10182;52.896;6.496;2022-12-07T22:36:35;100846.34;;;1.78;100.00
20043;BME280;10182;52.896;6.496;2022-12-07T22:41:37;100842.91;;;1.73;100.00
20043;BME280;10182;52.896;6.496;2022-12-07T22:46:38;100838.56;;;1.69;100.00
20043;BME280;10182;52.896;6.496;2022-12-07T22:51:42;100843.84;;;1.66;100.00
20043;BME280;10182;52.896;6.496;2022-12-07T22:56:44;100833.41;;;1.64;100.00
20043;BME280;10182;52.896;6.496;2022-12-07T23:01:46;100830.84;;;1.58;100.00
20043;BME280;10182;52.896;6.496;2022-12-07T23:06:49;100835.22;;;1.51;100.00
20043;BME280;10182;52.896;6.496;2022-12-07T23:11:50;100825.69;;;1.49;100.00
20043;BME280;10182;52.896;6.496;2022-12-07T23:17:09;100827.44;;;1.47;100.00
20043;BME280;10182;52.896;6.496;2022-12-07T23:22:12;100825.69;;;1.52;100.00
20043;BME280;10182;52.896;6.496;2022-12-07T23:27:14;100826.50;;;1.56;100.00
20043;BME280;10182;52.896;6.496;2022-12-07T23:32:15;100816.06;;;1.56;100.00
20043;BME280;10182;52.896;6.496;2022-12-07T23:37:18;100804.69;;;1.60;100.00
20043;BME280;10182;52.896;6.496;2022-12-07T23:42:20;100796.00;;;1.61;100.00
20043;BME280;10182;52.896;6.496;2022-12-07T23:47:22;100787.25;;;1.65;100.00
20043;BME280;10182;52.896;6.496;2022-12-07T23:52:25;100784.59;;;1.71;100.00
20043;BME280;10182;52.896;6.496;2022-12-07T23:57:26;100772.44;;;1.67;100.00
